createdAt,value
2023-01-18T00:01:38.967Z,86.60
2023-01-18T00:03:46.164Z,86.90
2023-01-18T00:05:54.643Z,87.90
2023-01-18T00:08:01.960Z,88.10
2023-01-18T00:10:09.716Z,88.20
2023-01-18T00:12:17.153Z,87.90
2023-01-18T00:14:24.081Z,87.90
2023-01-18T00:16:32.039Z,87.90
2023-01-18T00:18:39.112Z,87.80
2023-01-18T00:20:46.546Z,88.10
2023-01-18T00:22:56.045Z,88.60
2023-01-18T00:25:03.313Z,88.80
2023-01-18T00:27:13.622Z,89.10
2023-01-18T00:29:20.854Z,89.00
2023-01-18T00:31:27.687Z,89.30
2023-01-18T00:33:34.862Z,89.10
2023-01-18T00:35:41.681Z,88.90
2023-01-18T00:37:48.805Z,88.70
2023-01-18T00:39:57.443Z,88.70
2023-01-18T00:42:21.245Z,89.10
2023-01-18T00:44:28.121Z,88.70
2023-01-18T00:46:35.353Z,87.90
2023-01-18T00:48:43.610Z,87.60
2023-01-18T00:50:50.897Z,87.50
2023-01-18T00:53:00.983Z,87.20
2023-01-18T00:55:10.892Z,87.10
2023-01-18T00:57:17.969Z,86.30
2023-01-18T00:59:24.996Z,86.10
2023-01-18T01:01:32.006Z,86.00
2023-01-18T01:03:52.381Z,86.20
2023-01-18T01:06:32.063Z,86.10
2023-01-18T01:08:39.395Z,85.90
2023-01-18T01:10:48.845Z,85.70
2023-01-18T01:13:12.443Z,85.50
2023-01-18T01:15:36.173Z,85.00
2023-01-18T01:17:59.985Z,85.10
2023-01-18T01:20:23.654Z,84.00
2023-01-18T01:22:47.218Z,83.90
2023-01-18T01:25:10.836Z,83.40
2023-01-18T01:27:20.167Z,82.30
2023-01-18T01:29:27.041Z,81.90
2023-01-18T01:31:34.175Z,81.80
2023-01-18T01:33:41.463Z,81.20
2023-01-18T01:35:48.841Z,80.40
2023-01-18T01:37:56.075Z,80.20
2023-01-18T01:40:03.101Z,79.80
2023-01-18T01:42:12.436Z,79.70
2023-01-18T01:44:49.056Z,79.30
2023-01-18T01:47:00.337Z,79.40
2023-01-18T01:49:11.770Z,78.90
2023-01-18T01:51:21.151Z,78.60
2023-01-18T01:53:28.689Z,77.70
2023-01-18T01:55:38.025Z,78.30
2023-01-18T01:57:50.119Z,77.40
2023-01-18T02:00:01.954Z,76.80
2023-01-18T02:02:18.605Z,77.10
2023-01-18T02:04:25.997Z,76.50
2023-01-18T02:06:39.222Z,75.70
2023-01-18T02:08:49.474Z,75.80
2023-01-18T02:10:56.920Z,76.20
2023-01-18T02:13:04.655Z,75.90
2023-01-18T02:15:14.452Z,75.90
2023-01-18T02:17:40.218Z,75.20
2023-01-18T02:20:20.479Z,74.80
2023-01-18T02:22:45.627Z,75.00
2023-01-18T02:25:30.952Z,75.10
2023-01-18T02:27:44.533Z,75.70
2023-01-18T02:30:12.094Z,75.00
2023-01-18T02:32:29.414Z,74.10
2023-01-18T02:34:43.709Z,73.80
2023-01-18T02:37:00.520Z,72.30
2023-01-18T02:39:14.047Z,72.40
2023-01-18T02:41:46.570Z,72.10
2023-01-18T02:44:10.908Z,72.00
2023-01-18T02:46:34.898Z,70.50
2023-01-18T02:48:43.702Z,71.20
2023-01-18T02:50:50.882Z,71.20
2023-01-18T02:52:58.261Z,71.40
2023-01-18T02:55:06.117Z,70.60
2023-01-18T02:57:19.034Z,69.90
2023-01-18T02:59:31.450Z,69.70
2023-01-18T03:01:44.414Z,70.30
2023-01-18T03:03:53.687Z,69.50
2023-01-18T03:06:03.537Z,69.50
2023-01-18T03:08:17.417Z,69.40
2023-01-18T03:10:25.673Z,68.20
2023-01-18T03:12:48.724Z,68.00
2023-01-18T03:15:02.637Z,68.50
2023-01-18T03:17:17.791Z,68.80
2023-01-18T03:19:46.624Z,67.90
2023-01-18T03:21:54.522Z,67.80
2023-01-18T03:24:02.424Z,68.50
2023-01-18T03:26:11.242Z,68.10
2023-01-18T03:28:38.901Z,67.10
2023-01-18T03:31:04.647Z,67.20
2023-01-18T03:33:30.394Z,66.80
2023-01-18T03:35:39.154Z,65.10
2023-01-18T03:37:48.995Z,65.80
2023-01-18T03:39:59.699Z,65.90
2023-01-18T03:42:09.711Z,65.40
2023-01-18T03:44:22.165Z,65.00
2023-01-18T03:46:29.244Z,64.90
2023-01-18T03:48:39.396Z,64.00
2023-01-18T03:50:52.499Z,63.80
2023-01-18T03:53:07.105Z,63.40
2023-01-18T03:55:20.141Z,65.00
2023-01-18T03:57:33.010Z,63.90
2023-01-18T03:59:42.134Z,64.10
2023-01-18T04:01:49.896Z,64.00
2023-01-18T04:03:58.905Z,63.70
2023-01-18T04:06:07.824Z,64.80
2023-01-18T04:08:15.569Z,63.50
2023-01-18T04:10:22.958Z,63.80
2023-01-18T04:12:30.017Z,63.20
2023-01-18T04:14:37.370Z,63.10
2023-01-18T04:16:44.193Z,62.80
2023-01-18T04:18:51.638Z,61.40
2023-01-18T04:21:00.308Z,62.40
2023-01-18T04:23:07.530Z,62.80
2023-01-18T04:25:14.660Z,62.30
2023-01-18T04:27:24.204Z,61.50
2023-01-18T04:29:31.300Z,61.30
2023-01-18T04:31:38.678Z,60.50
2023-01-18T04:33:45.586Z,60.60
2023-01-18T04:35:55.284Z,60.40
2023-01-18T04:38:03.841Z,62.30
2023-01-18T04:40:12.866Z,60.00
2023-01-18T04:42:19.701Z,60.30
2023-01-18T04:44:26.977Z,60.50
2023-01-18T04:46:33.916Z,59.90
2023-01-18T04:48:41.337Z,59.60
2023-01-18T04:50:49.593Z,59.50
2023-01-18T04:52:57.155Z,59.00
2023-01-18T04:55:06.216Z,58.90
2023-01-18T04:57:13.496Z,57.70
2023-01-18T04:59:20.470Z,58.50
2023-01-18T05:01:28.152Z,58.90
2023-01-18T05:03:39.084Z,57.90
2023-01-18T05:05:46.425Z,57.10
2023-01-18T05:07:53.395Z,56.60
2023-01-18T05:10:00.637Z,56.10
2023-01-18T05:12:09.448Z,56.80
2023-01-18T05:14:17.041Z,56.30
2023-01-18T05:16:25.911Z,57.10
2023-01-18T05:18:33.339Z,58.30
2023-01-18T05:20:40.324Z,56.70
2023-01-18T05:22:47.406Z,56.80
2023-01-18T05:24:54.586Z,56.60
2023-01-18T05:27:01.820Z,57.00
2023-01-18T05:29:10.432Z,56.70
2023-01-18T05:31:19.587Z,56.70
2023-01-18T05:33:26.899Z,57.40
2023-01-18T05:35:34.951Z,56.80
2023-01-18T05:37:41.772Z,56.60
2023-01-18T05:39:48.953Z,56.90
2023-01-18T05:41:55.877Z,56.30
2023-01-18T05:44:03.266Z,55.50
2023-01-18T05:46:11.952Z,55.40
2023-01-18T05:48:19.688Z,54.00
2023-01-18T05:50:26.551Z,55.50
2023-01-18T05:52:33.939Z,55.30
2023-01-18T05:54:40.880Z,56.20
2023-01-18T05:56:48.010Z,56.40
2023-01-18T05:58:54.970Z,55.70
2023-01-18T06:01:02.200Z,55.90
2023-01-18T06:03:10.940Z,56.00
2023-01-18T06:05:18.418Z,55.20
2023-01-18T06:07:25.544Z,55.70
2023-01-18T06:09:32.885Z,55.90
2023-01-18T06:11:39.748Z,54.20
2023-01-18T06:13:46.936Z,54.10
2023-01-18T06:15:55.663Z,55.00
2023-01-18T06:18:02.934Z,57.10
2023-01-18T06:20:13.799Z,56.30
2023-01-18T06:22:20.929Z,55.00
2023-01-18T06:24:27.907Z,55.30
2023-01-18T06:26:35.805Z,55.30
2023-01-18T06:28:42.687Z,55.20
2023-01-18T06:30:52.427Z,54.00
2023-01-18T06:32:59.619Z,54.70
2023-01-18T06:35:07.553Z,55.30
2023-01-18T06:37:16.161Z,54.80
2023-01-18T06:39:23.401Z,55.60
2023-01-18T06:41:32.480Z,54.30
2023-01-18T06:43:39.770Z,54.80
2023-01-18T06:45:47.175Z,54.50
2023-01-18T06:47:54.386Z,54.40
2023-01-18T06:50:01.313Z,53.80
2023-01-18T06:52:08.896Z,54.90
2023-01-18T06:54:17.771Z,53.40
2023-01-18T06:56:24.747Z,54.40
2023-01-18T06:58:34.539Z,53.10
2023-01-18T07:00:41.568Z,53.30
2023-01-18T07:02:48.747Z,53.50
2023-01-18T07:04:55.626Z,53.80
2023-01-18T07:07:02.959Z,53.70
2023-01-18T07:09:10.616Z,53.10
2023-01-18T07:11:19.679Z,51.90
2023-01-18T07:13:26.909Z,54.50
2023-01-18T07:15:34.142Z,53.40
2023-01-18T07:17:41.068Z,53.30
2023-01-18T07:19:48.311Z,53.10
2023-01-18T07:21:56.100Z,53.00
2023-01-18T07:24:03.328Z,52.40
2023-01-18T07:26:11.119Z,52.60
2023-01-18T07:28:20.052Z,52.20
2023-01-18T07:30:27.026Z,52.30
2023-01-18T07:32:34.562Z,52.50
2023-01-18T07:34:41.522Z,52.40
2023-01-18T07:36:48.775Z,52.10
2023-01-18T07:38:56.007Z,52.70
2023-01-18T07:41:04.883Z,52.20
2023-01-18T07:43:12.059Z,52.50
2023-01-18T07:45:22.209Z,52.10
2023-01-18T07:47:29.047Z,51.80
2023-01-18T07:49:36.317Z,52.20
2023-01-18T07:51:43.613Z,52.10
2023-01-18T07:53:50.785Z,52.30
2023-01-18T07:55:58.270Z,52.20
2023-01-18T07:58:05.762Z,52.10
2023-01-18T08:00:14.945Z,51.70
2023-01-18T08:02:23.959Z,52.50
2023-01-18T08:04:30.837Z,52.30
2023-01-18T08:06:38.280Z,51.70
2023-01-18T08:08:45.766Z,51.00
2023-01-18T08:10:57.092Z,51.70
2023-01-18T08:13:04.068Z,51.60
2023-01-18T08:15:12.430Z,51.60
2023-01-18T08:17:19.255Z,50.30
2023-01-18T08:19:29.658Z,51.30
2023-01-18T08:21:36.741Z,51.50
2023-01-18T08:23:44.181Z,51.40
2023-01-18T08:25:51.208Z,50.20
2023-01-18T08:27:59.155Z,50.80
2023-01-18T08:30:06.115Z,50.90
2023-01-18T08:32:13.107Z,50.80
2023-01-18T08:34:20.243Z,50.10
2023-01-18T08:36:29.570Z,50.50
2023-01-18T08:38:36.515Z,50.40
2023-01-18T08:40:43.890Z,50.80
2023-01-18T08:42:50.808Z,51.10
2023-01-18T08:44:58.091Z,50.10
2023-01-18T08:47:04.917Z,49.90
2023-01-18T08:49:13.127Z,49.90
2023-01-18T08:51:21.274Z,49.60
2023-01-18T08:53:30.658Z,50.10
2023-01-18T08:55:40.350Z,49.90
2023-01-18T08:57:47.592Z,50.00
2023-01-18T08:59:55.737Z,50.70
2023-01-18T09:02:02.987Z,50.70
2023-01-18T09:04:10.109Z,50.60
2023-01-18T09:06:17.793Z,51.00
2023-01-18T09:08:24.719Z,50.50
2023-01-18T09:10:33.845Z,50.60
2023-01-18T09:12:40.784Z,50.60
2023-01-18T09:14:48.315Z,50.20
2023-01-18T09:16:55.242Z,50.30
2023-01-18T09:19:02.535Z,50.70
2023-01-18T09:21:10.571Z,50.80
2023-01-18T09:23:17.490Z,50.80
2023-01-18T09:25:24.685Z,50.80
2023-01-18T09:27:33.602Z,50.40
2023-01-18T09:29:40.888Z,50.80
2023-01-18T09:31:49.347Z,50.60
2023-01-18T09:34:17.462Z,50.80
2023-01-18T09:36:27.467Z,50.80
2023-01-18T09:38:35.067Z,51.20
2023-01-18T09:40:47.259Z,51.40
2023-01-18T09:42:56.800Z,52.00
2023-01-18T09:45:04.437Z,51.50
2023-01-18T09:47:20.532Z,51.50
2023-01-18T09:49:34.364Z,51.70
2023-01-18T09:51:52.300Z,51.60
2023-01-18T09:54:11.827Z,51.50
2023-01-18T09:56:24.328Z,51.50
2023-01-18T09:58:49.690Z,51.70
2023-01-18T10:01:02.199Z,51.40
2023-01-18T10:03:15.055Z,51.60
2023-01-18T10:05:26.181Z,51.60
2023-01-18T10:07:37.051Z,51.50
2023-01-18T10:09:47.659Z,51.70
2023-01-18T10:12:01.765Z,51.60
2023-01-18T10:14:18.377Z,51.60
2023-01-18T10:16:26.270Z,51.80
2023-01-18T10:18:33.639Z,51.90
2023-01-18T10:20:48.826Z,52.00
2023-01-18T10:23:02.089Z,52.10
2023-01-18T10:25:17.559Z,52.00
2023-01-18T10:27:41.125Z,52.30
2023-01-18T10:30:01.271Z,52.60
2023-01-18T10:32:12.238Z,52.60
2023-01-18T10:34:22.281Z,52.70
2023-01-18T10:36:33.812Z,52.70
2023-01-18T10:38:41.820Z,52.80
2023-01-18T10:40:52.381Z,53.00
2023-01-18T10:43:03.296Z,53.00
2023-01-18T10:45:20.425Z,53.20
2023-01-18T10:47:27.334Z,53.10
2023-01-18T10:49:42.415Z,53.30
2023-01-18T10:51:50.605Z,53.60
2023-01-18T10:53:58.439Z,53.90
2023-01-18T10:56:07.737Z,54.20
2023-01-18T10:58:17.681Z,54.30
2023-01-18T11:00:31.816Z,54.20
2023-01-18T11:02:44.885Z,54.60
2023-01-18T11:04:59.146Z,54.80
2023-01-18T11:07:07.910Z,54.70
2023-01-18T11:09:43.033Z,55.00
2023-01-18T11:12:06.819Z,56.00
2023-01-18T11:14:27.417Z,55.80
2023-01-18T11:16:37.011Z,56.80
2023-01-18T11:19:05.965Z,56.60
2023-01-18T11:21:17.734Z,57.40
2023-01-18T11:23:27.715Z,57.30
2023-01-18T11:25:41.588Z,57.50
2023-01-18T11:27:50.003Z,57.90
2023-01-18T11:29:57.471Z,58.10
2023-01-18T11:32:11.565Z,58.40
2023-01-18T11:34:30.880Z,58.30
2023-01-18T11:36:40.012Z,58.80
2023-01-18T11:38:47.136Z,59.50
2023-01-18T11:41:06.824Z,59.60
2023-01-18T11:43:20.639Z,60.00
2023-01-18T11:45:32.668Z,60.40
2023-01-18T11:47:56.856Z,60.30
2023-01-18T11:50:21.287Z,60.40
2023-01-18T11:52:43.956Z,60.90
2023-01-18T11:54:56.051Z,61.90
2023-01-18T11:57:04.928Z,61.60
2023-01-18T11:59:18.657Z,61.50
2023-01-18T12:01:46.985Z,62.10
2023-01-18T12:04:05.544Z,62.50
2023-01-18T12:06:25.266Z,63.30
2023-01-18T12:08:55.226Z,63.10
2023-01-18T12:11:15.838Z,63.10
2023-01-18T12:13:37.132Z,63.90
2023-01-18T12:15:59.831Z,64.00
2023-01-18T12:18:23.034Z,63.20
2023-01-18T12:20:40.975Z,63.10
2023-01-18T12:23:15.034Z,63.00
2023-01-18T12:25:34.096Z,63.90
2023-01-18T12:27:47.110Z,63.60
2023-01-18T12:30:14.217Z,63.70
2023-01-18T12:32:50.382Z,65.20
2023-01-18T12:35:19.050Z,65.30
2023-01-18T12:37:42.452Z,65.10
2023-01-18T12:40:20.420Z,65.30
2023-01-18T12:42:39.019Z,65.50
2023-01-18T12:45:04.275Z,65.40
2023-01-18T12:47:27.032Z,66.10
2023-01-18T12:49:38.606Z,66.50
2023-01-18T12:51:47.171Z,66.20
2023-01-18T12:54:00.810Z,65.90
2023-01-18T12:56:16.235Z,66.80
2023-01-18T12:58:27.300Z,66.80
2023-01-18T13:00:39.246Z,67.20
2023-01-18T13:02:49.991Z,67.20
2023-01-18T13:05:00.573Z,67.80
2023-01-18T13:07:14.101Z,67.50
2023-01-18T13:09:26.715Z,66.90
2023-01-18T13:11:36.605Z,67.50
2023-01-18T13:13:46.038Z,67.60
2023-01-18T13:15:59.504Z,67.20
2023-01-18T13:18:13.512Z,67.40
2023-01-18T13:20:23.359Z,66.50
2023-01-18T13:22:38.530Z,66.20
2023-01-18T13:25:11.309Z,65.80
2023-01-18T13:27:20.538Z,65.80
2023-01-18T13:29:31.046Z,65.80
2023-01-18T13:31:38.327Z,65.70
2023-01-18T13:33:48.019Z,65.80
2023-01-18T13:35:58.276Z,66.00
2023-01-18T13:38:13.148Z,65.60
2023-01-18T13:40:40.539Z,65.60
2023-01-18T13:42:47.503Z,65.30
2023-01-18T13:45:15.948Z,65.30
2023-01-18T13:48:00.981Z,65.20
2023-01-18T13:50:46.200Z,65.30
2023-01-18T13:53:24.151Z,65.40
2023-01-18T13:55:34.878Z,65.60
2023-01-18T13:57:42.087Z,65.80
2023-01-18T13:59:52.387Z,65.60
2023-01-18T14:02:11.019Z,65.40
2023-01-18T14:04:33.743Z,65.40
2023-01-18T14:06:45.478Z,65.50
2023-01-18T14:08:55.381Z,65.60
2023-01-18T14:11:10.185Z,65.70
2023-01-18T14:13:20.113Z,65.80
2023-01-18T14:15:33.926Z,65.70
2023-01-18T14:17:57.803Z,65.70
2023-01-18T14:20:40.043Z,65.40
2023-01-18T14:23:03.200Z,65.30
2023-01-18T14:25:31.832Z,65.40
2023-01-18T14:27:44.702Z,65.60
2023-01-18T14:29:56.148Z,65.60
2023-01-18T14:32:03.929Z,65.90
2023-01-18T14:34:28.934Z,65.70
2023-01-18T14:36:38.780Z,65.30
2023-01-18T14:38:45.694Z,65.00
2023-01-18T14:40:54.565Z,64.70
2023-01-18T14:43:05.760Z,64.60
2023-01-18T14:45:23.967Z,64.60
2023-01-18T14:47:35.163Z,64.50
2023-01-18T14:49:45.614Z,64.50
2023-01-18T14:51:53.206Z,64.40
2023-01-18T14:54:03.050Z,64.40
2023-01-18T14:56:13.408Z,64.40
2023-01-18T14:58:22.386Z,64.40
2023-01-18T15:00:29.757Z,64.30
2023-01-18T15:02:41.539Z,64.30
2023-01-18T15:04:49.808Z,64.50
2023-01-18T15:06:59.250Z,64.40
2023-01-18T15:09:08.137Z,64.40
2023-01-18T15:11:16.479Z,64.60
2023-01-18T15:13:27.553Z,64.70
2023-01-18T15:15:37.562Z,64.40
2023-01-18T15:17:45.456Z,64.40
2023-01-18T15:19:55.240Z,64.50
2023-01-18T15:22:03.137Z,64.70
2023-01-18T15:24:12.111Z,64.90
2023-01-18T15:26:19.344Z,65.10
2023-01-18T15:28:34.858Z,65.20
2023-01-18T15:30:42.049Z,65.30
2023-01-18T15:32:50.718Z,65.40
2023-01-18T15:34:59.749Z,65.70
2023-01-18T15:37:10.974Z,65.70
2023-01-18T15:39:18.238Z,65.70
2023-01-18T15:41:26.460Z,66.00
2023-01-18T15:43:38.305Z,66.00
2023-01-18T15:45:50.990Z,65.90
2023-01-18T15:47:59.477Z,65.60
2023-01-18T15:50:09.303Z,65.70
2023-01-18T15:52:16.454Z,66.10
2023-01-18T15:54:25.475Z,66.00
2023-01-18T15:56:33.776Z,66.00
2023-01-18T15:58:45.776Z,66.40
2023-01-18T16:00:58.766Z,66.50
2023-01-18T16:03:05.721Z,66.80
2023-01-18T16:05:22.992Z,66.50
2023-01-18T16:07:40.191Z,66.40
2023-01-18T16:09:47.435Z,66.20
2023-01-18T16:11:57.457Z,66.40
2023-01-18T16:14:14.039Z,66.60
2023-01-18T16:16:25.215Z,66.60
2023-01-18T16:18:32.498Z,66.40
2023-01-18T16:20:39.524Z,66.00
2023-01-18T16:22:47.525Z,66.00
2023-01-18T16:24:56.757Z,66.30
2023-01-18T16:27:11.291Z,66.70
2023-01-18T16:29:19.974Z,66.90
2023-01-18T16:31:29.110Z,67.00
2023-01-18T16:33:36.181Z,67.00
2023-01-18T16:35:43.452Z,67.90
2023-01-18T16:37:50.760Z,67.80
2023-01-18T16:39:58.146Z,67.50
2023-01-18T16:42:05.634Z,67.40
2023-01-18T16:44:14.650Z,68.00
2023-01-18T16:46:23.563Z,68.00
2023-01-18T16:48:32.085Z,68.60
2023-01-18T16:50:39.151Z,68.80
2023-01-18T16:52:46.185Z,69.30
2023-01-18T16:54:53.017Z,70.00
2023-01-18T16:57:00.204Z,69.50
2023-01-18T16:59:17.157Z,69.40
2023-01-18T17:01:26.090Z,69.30
2023-01-18T17:03:32.890Z,69.50
2023-01-18T17:05:39.932Z,69.40
2023-01-18T17:07:47.297Z,69.90
2023-01-18T17:09:54.397Z,70.40
2023-01-18T17:12:01.118Z,70.80
2023-01-18T17:14:08.226Z,71.60
2023-01-18T17:16:19.030Z,71.60
2023-01-18T17:18:28.855Z,70.90
2023-01-18T17:20:36.102Z,70.70
2023-01-18T17:22:43.250Z,71.10
2023-01-18T17:24:54.136Z,70.70
2023-01-18T17:27:00.924Z,70.60
2023-01-18T17:29:08.976Z,71.30
2023-01-18T17:31:16.057Z,71.10
2023-01-18T17:33:24.299Z,71.20
2023-01-18T17:35:33.555Z,70.90
2023-01-18T17:37:40.207Z,71.00
2023-01-18T17:40:02.479Z,70.50
2023-01-18T17:42:19.027Z,70.50
2023-01-18T17:44:37.451Z,70.30
2023-01-18T17:46:44.534Z,70.50
2023-01-18T17:48:51.694Z,70.90
2023-01-18T17:51:00.256Z,71.00
2023-01-18T17:53:07.698Z,70.70
2023-01-18T17:55:17.851Z,71.10
2023-01-18T17:57:26.499Z,71.30
2023-01-18T17:59:33.219Z,71.10
2023-01-18T18:01:40.522Z,71.10
2023-01-18T18:03:50.444Z,71.20
2023-01-18T18:06:03.268Z,71.30
2023-01-18T18:08:10.490Z,71.30
2023-01-18T18:10:17.680Z,71.30
2023-01-18T18:12:24.399Z,71.30
2023-01-18T18:14:31.426Z,71.50
2023-01-18T18:16:43.168Z,72.20
2023-01-18T18:18:50.651Z,71.80
2023-01-18T18:21:03.129Z,71.90
2023-01-18T18:23:11.154Z,71.90
2023-01-18T18:25:18.358Z,71.80
2023-01-18T18:27:37.334Z,71.80
2023-01-18T18:29:51.423Z,71.90
2023-01-18T18:31:58.239Z,71.90
2023-01-18T18:34:05.293Z,72.10
2023-01-18T18:36:14.016Z,72.40
2023-01-18T18:38:23.993Z,72.90
2023-01-18T18:40:30.898Z,73.50
2023-01-18T18:42:38.183Z,73.60
2023-01-18T18:44:45.413Z,73.70
2023-01-18T18:46:52.762Z,73.90
2023-01-18T18:48:59.736Z,74.30
2023-01-18T18:51:07.017Z,74.80
2023-01-18T18:53:16.896Z,75.40
2023-01-18T18:55:24.569Z,75.70
2023-01-18T18:57:31.529Z,76.70
2023-01-18T18:59:39.017Z,77.10
2023-01-18T19:01:46.129Z,77.10
2023-01-18T19:03:54.552Z,76.70
2023-01-18T19:06:01.381Z,76.80
2023-01-18T19:08:08.968Z,76.50
2023-01-18T19:10:17.878Z,76.70
2023-01-18T19:12:25.073Z,76.20
2023-01-18T19:14:32.515Z,76.10
2023-01-18T19:16:39.856Z,76.60
2023-01-18T19:18:46.923Z,75.90
2023-01-18T19:20:54.526Z,76.40
2023-01-18T19:23:02.376Z,75.80
2023-01-18T19:25:11.437Z,75.70
2023-01-18T19:27:20.104Z,75.60
2023-01-18T19:29:27.388Z,75.80
2023-01-18T19:31:34.678Z,74.90
2023-01-18T19:33:42.175Z,75.10
2023-01-18T19:35:49.553Z,75.00
2023-01-18T19:37:57.243Z,75.10
2023-01-18T19:40:04.120Z,75.50
2023-01-18T19:42:11.151Z,74.30
2023-01-18T19:44:20.020Z,75.00
2023-01-18T19:46:28.977Z,75.10
2023-01-18T19:48:37.755Z,74.10
2023-01-18T19:50:45.104Z,74.50
2023-01-18T19:52:52.022Z,74.80
2023-01-18T19:54:59.813Z,74.00
2023-01-18T19:57:08.434Z,73.70
2023-01-18T19:59:16.006Z,73.30
2023-01-18T20:01:35.901Z,74.00
2023-01-18T20:03:43.840Z,74.00
2023-01-18T20:05:51.039Z,74.20
2023-01-18T20:07:57.888Z,74.80
2023-01-18T20:10:04.966Z,75.90
2023-01-18T20:12:13.538Z,76.00
2023-01-18T20:14:21.798Z,76.20
2023-01-18T20:16:31.511Z,76.90
2023-01-18T20:18:40.365Z,76.90
2023-01-18T20:20:47.344Z,76.30
2023-01-18T20:22:54.729Z,76.30
2023-01-18T20:25:01.888Z,76.90
2023-01-18T20:27:15.901Z,77.80
2023-01-18T20:29:23.596Z,78.40
2023-01-18T20:31:32.590Z,78.30
2023-01-18T20:33:40.369Z,78.60
2023-01-18T20:35:47.754Z,78.90
2023-01-18T20:37:55.459Z,79.20
2023-01-18T20:40:02.670Z,79.00
2023-01-18T20:42:10.040Z,79.60
2023-01-18T20:44:17.237Z,79.60
2023-01-18T20:46:24.223Z,80.30
2023-01-18T20:48:33.156Z,80.10
2023-01-18T20:50:40.532Z,79.80
2023-01-18T20:52:47.867Z,80.60
2023-01-18T20:54:55.514Z,80.40
2023-01-18T20:57:02.688Z,80.60
2023-01-18T20:59:09.562Z,80.30
2023-01-18T21:01:17.447Z,80.80
2023-01-18T21:03:24.594Z,80.50
2023-01-18T21:05:33.465Z,80.90
2023-01-18T21:07:41.729Z,81.00
2023-01-18T21:09:49.415Z,80.90
2023-01-18T21:11:56.445Z,80.70
2023-01-18T21:14:05.137Z,81.20
2023-01-18T21:16:12.833Z,81.40
2023-01-18T21:18:20.138Z,81.80
2023-01-18T21:20:31.006Z,81.90
2023-01-18T21:22:39.937Z,82.10
2023-01-18T21:24:46.904Z,82.30
2023-01-18T21:26:54.223Z,82.20
2023-01-18T21:29:01.583Z,82.50
2023-01-18T21:31:09.173Z,82.60
2023-01-18T21:33:15.937Z,82.40
2023-01-18T21:35:23.055Z,82.60
2023-01-18T21:37:30.108Z,82.00
2023-01-18T21:39:38.979Z,81.70
2023-01-18T21:42:02.636Z,82.30
2023-01-18T21:44:26.474Z,83.00
2023-01-18T21:46:33.488Z,83.40
2023-01-18T21:48:40.975Z,83.50
2023-01-18T21:51:04.590Z,83.40
2023-01-18T21:53:34.407Z,83.70
2023-01-18T21:55:43.991Z,84.10
2023-01-18T21:58:11.037Z,83.60
2023-01-18T22:00:18.939Z,83.50
2023-01-18T22:02:26.481Z,83.50
2023-01-18T22:04:49.784Z,83.70
2023-01-18T22:06:58.860Z,83.50
2023-01-18T22:09:06.196Z,83.70
2023-01-18T22:11:15.171Z,84.10
2023-01-18T22:13:22.049Z,84.00
2023-01-18T22:15:29.233Z,84.40
2023-01-18T22:17:36.109Z,84.60
2023-01-18T22:19:44.974Z,84.00
2023-01-18T22:21:52.461Z,84.10
2023-01-18T22:23:59.440Z,84.70
2023-01-18T22:26:06.199Z,84.60
2023-01-18T22:28:14.778Z,84.90
2023-01-18T22:30:21.902Z,85.40
2023-01-18T22:32:28.980Z,85.50
2023-01-18T22:34:35.818Z,85.60
2023-01-18T22:36:42.989Z,85.90
2023-01-18T22:38:49.870Z,85.70
2023-01-18T22:41:05.232Z,86.10
2023-01-18T22:43:13.831Z,86.50
2023-01-18T22:45:21.114Z,86.90
2023-01-18T22:47:28.365Z,86.80
2023-01-18T22:49:35.703Z,87.00
2023-01-18T22:51:42.575Z,87.00
2023-01-18T22:53:49.656Z,87.30
2023-01-18T22:55:56.835Z,87.80
2023-01-18T22:58:04.075Z,88.20
2023-01-18T23:00:14.116Z,88.20
2023-01-18T23:02:21.197Z,87.90
2023-01-18T23:04:30.376Z,87.80
2023-01-18T23:06:46.669Z,87.30
2023-01-18T23:08:55.387Z,87.00
2023-01-18T23:11:02.316Z,87.00
2023-01-18T23:13:09.432Z,87.50
2023-01-18T23:15:31.433Z,87.50
2023-01-18T23:17:40.413Z,87.20
2023-01-18T23:19:47.384Z,87.00
2023-01-18T23:21:55.322Z,87.40
2023-01-18T23:24:02.502Z,88.00
2023-01-18T23:26:10.147Z,88.50
2023-01-18T23:28:28.232Z,88.80
2023-01-18T23:30:37.164Z,89.20
2023-01-18T23:32:44.285Z,89.80
2023-01-18T23:34:51.467Z,90.10
2023-01-18T23:36:58.647Z,90.10
2023-01-18T23:39:22.205Z,89.80
2023-01-18T23:41:45.676Z,89.30
2023-01-18T23:44:09.345Z,88.60
2023-01-18T23:46:34.293Z,88.30
2023-01-18T23:48:58.011Z,88.80
2023-01-18T23:51:22.053Z,89.40
2023-01-18T23:53:45.666Z,89.60
2023-01-18T23:55:56.424Z,89.30
2023-01-18T23:58:03.810Z,89.20
